createdAt,value
2023-03-02T00:01:47.897Z,36.60
2023-03-02T00:04:34.429Z,39.22
2023-03-02T00:07:06.071Z,41.13
2023-03-02T00:09:33.182Z,39.22
2023-03-02T00:12:00.513Z,39.00
2023-03-02T00:14:27.532Z,42.92
2023-03-02T00:16:55.068Z,37.78
2023-03-02T00:19:22.026Z,42.70
2023-03-02T00:21:49.148Z,40.17
2023-03-02T00:24:16.384Z,38.63
2023-03-02T00:26:43.507Z,38.80
2023-03-02T00:29:11.134Z,38.67
2023-03-02T00:31:38.633Z,43.22
2023-03-02T00:34:05.796Z,45.47
2023-03-02T00:36:33.446Z,42.65
2023-03-02T00:39:00.545Z,43.20
2023-03-02T00:41:27.829Z,41.72
2023-03-02T00:43:56.302Z,42.70
2023-03-02T00:46:25.045Z,42.90
2023-03-02T00:48:52.854Z,44.25
2023-03-02T00:51:20.069Z,43.67
2023-03-02T00:53:47.395Z,42.40
2023-03-02T00:56:14.562Z,45.30
2023-03-02T00:58:47.660Z,43.55
2023-03-02T01:01:15.950Z,43.67
2023-03-02T01:03:47.945Z,44.22
2023-03-02T01:06:20.291Z,42.78
2023-03-02T01:08:47.548Z,45.92
2023-03-02T01:11:20.821Z,46.00
2023-03-02T01:13:49.713Z,45.58
2023-03-02T01:16:17.035Z,50.10
2023-03-02T01:18:44.136Z,45.20
2023-03-02T01:21:14.738Z,46.67
2023-03-02T01:23:42.509Z,44.35
2023-03-02T01:26:10.442Z,40.95
2023-03-02T01:28:37.633Z,41.97
2023-03-02T01:31:05.053Z,45.83
2023-03-02T01:33:32.959Z,41.10
2023-03-02T01:36:00.414Z,46.20
2023-03-02T01:38:29.891Z,45.88
2023-03-02T01:40:57.114Z,40.92
2023-03-02T01:43:24.660Z,44.95
2023-03-02T01:45:53.327Z,44.15
2023-03-02T01:48:42.524Z,47.47
2023-03-02T01:51:17.223Z,44.30
2023-03-02T01:53:49.631Z,45.85
2023-03-02T01:56:25.093Z,42.08
2023-03-02T01:59:02.026Z,44.65
2023-03-02T02:01:32.854Z,44.53
2023-03-02T02:04:01.668Z,43.65
2023-03-02T02:06:40.044Z,44.47
2023-03-02T02:09:10.933Z,41.72
2023-03-02T02:11:38.650Z,46.30
2023-03-02T02:14:06.794Z,45.30
2023-03-02T02:16:35.808Z,43.88
2023-03-02T02:19:14.902Z,48.22
2023-03-02T02:21:42.002Z,43.75
2023-03-02T02:24:19.024Z,44.67
2023-03-02T02:26:53.399Z,44.47
2023-03-02T02:29:33.185Z,43.28
2023-03-02T02:32:09.920Z,46.03
2023-03-02T02:35:12.667Z,45.58
2023-03-02T02:37:45.601Z,46.85
2023-03-02T02:40:38.502Z,45.47
2023-03-02T02:43:10.408Z,44.75
2023-03-02T02:45:37.946Z,44.63
2023-03-02T02:48:12.029Z,46.03
2023-03-02T02:50:39.369Z,46.60
2023-03-02T02:53:22.756Z,45.35
2023-03-02T02:55:53.718Z,47.65
2023-03-02T02:58:43.844Z,45.35
2023-03-02T03:01:26.146Z,48.45
2023-03-02T03:04:02.912Z,43.70
2023-03-02T03:06:42.759Z,45.60
2023-03-02T03:09:13.116Z,46.78
2023-03-02T03:11:50.183Z,50.63
2023-03-02T03:14:48.226Z,47.75
2023-03-02T03:17:15.572Z,50.63
2023-03-02T03:19:50.248Z,49.97
2023-03-02T03:22:18.402Z,49.92
2023-03-02T03:24:48.121Z,49.63
2023-03-02T03:27:16.779Z,50.28
2023-03-02T03:29:50.332Z,53.63
2023-03-02T03:34:49.361Z,50.45
2023-03-02T03:37:27.314Z,52.63
2023-03-02T03:39:56.160Z,48.47
2023-03-02T03:42:24.254Z,50.75
2023-03-02T03:44:53.020Z,49.85
2023-03-02T03:47:21.940Z,47.65
2023-03-02T03:49:50.592Z,52.53
2023-03-02T03:52:17.940Z,51.45
2023-03-02T03:54:45.030Z,55.38
2023-03-02T03:57:12.241Z,48.95
2023-03-02T03:59:40.015Z,51.83
2023-03-02T04:02:08.404Z,55.25
2023-03-02T04:04:39.830Z,52.90
2023-03-02T04:07:11.581Z,52.17
2023-03-02T04:09:39.336Z,52.50
2023-03-02T04:12:09.668Z,53.75
2023-03-02T04:14:38.495Z,58.28
2023-03-02T04:17:07.219Z,55.53
2023-03-02T04:19:37.913Z,54.03
2023-03-02T04:22:05.696Z,52.30
2023-03-02T04:24:36.576Z,54.08
2023-03-02T04:27:04.845Z,59.30
2023-03-02T04:29:33.537Z,67.07
2023-03-02T04:32:02.677Z,69.65
2023-03-02T04:34:32.615Z,58.20
2023-03-02T04:37:00.836Z,53.15
2023-03-02T04:39:28.099Z,57.42
2023-03-02T04:41:59.841Z,57.72
2023-03-02T04:44:27.644Z,50.90
2023-03-02T04:46:55.224Z,62.22
2023-03-02T04:49:23.906Z,55.92
2023-03-02T04:51:51.107Z,55.25
2023-03-02T04:54:26.863Z,57.15
2023-03-02T04:56:55.785Z,55.80
2023-03-02T04:59:27.803Z,56.78
2023-03-02T05:01:59.375Z,53.72
2023-03-02T05:04:28.159Z,55.08
2023-03-02T05:06:55.783Z,52.55
2023-03-02T05:09:27.496Z,50.63
2023-03-02T05:11:56.899Z,55.50
2023-03-02T05:14:24.880Z,49.88
2023-03-02T05:16:52.674Z,54.30
2023-03-02T05:19:20.138Z,52.35
2023-03-02T05:21:47.374Z,52.45
2023-03-02T05:24:15.115Z,52.95
2023-03-02T05:26:42.341Z,56.80
2023-03-02T05:29:09.615Z,50.90
2023-03-02T05:31:43.596Z,54.58
2023-03-02T05:34:13.596Z,52.15
2023-03-02T05:36:41.044Z,57.78
2023-03-02T05:39:09.354Z,57.63
2023-03-02T05:41:37.916Z,57.67
2023-03-02T05:44:09.431Z,51.83
2023-03-02T05:46:37.083Z,50.67
2023-03-02T05:49:04.902Z,50.65
2023-03-02T05:51:31.934Z,56.15
2023-03-02T05:53:59.089Z,53.58
2023-03-02T05:56:26.278Z,53.17
2023-03-02T05:58:53.280Z,52.53
2023-03-02T06:01:20.402Z,51.90
2023-03-02T06:03:47.574Z,53.55
2023-03-02T06:06:14.681Z,47.07
2023-03-02T06:08:43.273Z,50.67
2023-03-02T06:11:11.861Z,59.25
2023-03-02T06:13:40.052Z,69.97
2023-03-02T06:16:08.840Z,58.85
2023-03-02T06:18:38.031Z,51.10
2023-03-02T06:21:06.721Z,51.28
2023-03-02T06:23:33.764Z,47.63
2023-03-02T06:26:00.836Z,51.97
2023-03-02T06:28:28.233Z,59.30
2023-03-02T06:30:55.285Z,53.58
2023-03-02T06:33:22.626Z,49.65
2023-03-02T06:35:50.501Z,50.53
2023-03-02T06:38:18.029Z,52.90
2023-03-02T06:40:45.278Z,58.97
2023-03-02T06:43:12.398Z,56.95
2023-03-02T06:45:42.798Z,50.97
2023-03-02T06:48:10.120Z,52.17
2023-03-02T06:50:37.285Z,52.38
2023-03-02T06:53:04.446Z,51.22
2023-03-02T06:55:31.636Z,50.75
2023-03-02T06:57:58.626Z,50.25
2023-03-02T07:00:28.141Z,46.85
2023-03-02T07:02:56.858Z,51.22
2023-03-02T07:05:24.728Z,47.38
2023-03-02T07:07:52.332Z,49.20
2023-03-02T07:10:19.682Z,47.33
2023-03-02T07:12:47.131Z,53.58
2023-03-02T07:15:14.844Z,49.58
2023-03-02T07:17:44.796Z,54.50
2023-03-02T07:20:15.865Z,49.88
2023-03-02T07:22:43.859Z,58.17
2023-03-02T07:25:12.380Z,52.30
2023-03-02T07:27:40.189Z,54.78
2023-03-02T07:30:08.853Z,65.45
2023-03-02T07:32:36.033Z,59.80
2023-03-02T07:35:03.407Z,58.03
2023-03-02T07:37:30.479Z,55.35
2023-03-02T07:39:59.664Z,58.40
2023-03-02T07:42:27.790Z,60.45
2023-03-02T07:44:57.719Z,59.85
2023-03-02T07:47:25.285Z,59.97
2023-03-02T07:49:52.543Z,64.80
2023-03-02T07:52:19.944Z,62.08
2023-03-02T07:54:47.839Z,61.00
2023-03-02T07:57:16.539Z,66.22
2023-03-02T07:59:44.392Z,64.45
2023-03-02T08:02:17.713Z,61.08
2023-03-02T08:04:44.866Z,66.67
2023-03-02T08:07:12.440Z,65.45
2023-03-02T08:09:40.414Z,71.70
2023-03-02T08:12:07.771Z,64.85
2023-03-02T08:14:35.023Z,62.55
2023-03-02T08:17:02.671Z,64.43
2023-03-02T08:19:29.736Z,64.28
2023-03-02T08:21:56.851Z,64.40
2023-03-02T08:24:24.405Z,64.15
2023-03-02T08:26:51.531Z,63.53
2023-03-02T08:29:18.905Z,67.15
2023-03-02T08:31:45.917Z,67.38
2023-03-02T08:34:12.991Z,65.88
2023-03-02T08:36:41.109Z,67.22
2023-03-02T08:39:09.113Z,62.63
2023-03-02T08:41:36.390Z,66.75
2023-03-02T08:44:03.588Z,69.38
2023-03-02T08:46:31.596Z,67.22
2023-03-02T08:48:58.575Z,72.03
2023-03-02T08:51:26.838Z,74.00
2023-03-02T08:53:56.693Z,64.38
2023-03-02T08:56:36.810Z,72.65
2023-03-02T08:59:09.304Z,67.82
2023-03-02T09:01:38.531Z,68.10
2023-03-02T09:04:09.233Z,68.35
2023-03-02T09:06:41.206Z,68.53
2023-03-02T09:09:11.420Z,64.50
2023-03-02T09:11:39.176Z,68.90
2023-03-02T09:14:06.279Z,70.75
2023-03-02T09:16:33.438Z,62.35
2023-03-02T09:19:00.993Z,58.22
2023-03-02T09:21:28.478Z,64.75
2023-03-02T09:23:58.202Z,64.13
2023-03-02T09:26:27.104Z,64.70
2023-03-02T09:28:55.172Z,62.65
2023-03-02T09:31:22.590Z,63.50
2023-03-02T09:33:49.639Z,63.22
2023-03-02T09:36:25.400Z,61.28
2023-03-02T09:38:53.898Z,66.22
2023-03-02T09:41:20.832Z,60.38
2023-03-02T09:44:21.580Z,57.65
2023-03-02T09:47:04.478Z,63.58
2023-03-02T09:49:58.409Z,63.67
2023-03-02T09:52:40.374Z,61.00
2023-03-02T09:55:19.258Z,67.05
2023-03-02T09:57:47.397Z,61.40
2023-03-02T10:00:40.612Z,59.75
2023-03-02T10:03:37.925Z,67.20
2023-03-02T10:06:05.868Z,62.63
2023-03-02T10:08:36.671Z,60.33
2023-03-02T10:11:40.494Z,64.65
2023-03-02T10:14:20.972Z,60.65
2023-03-02T10:17:30.255Z,61.85
2023-03-02T10:20:05.164Z,55.08
2023-03-02T10:22:53.389Z,54.15
2023-03-02T10:25:45.033Z,54.83
2023-03-02T10:28:26.595Z,55.78
2023-03-02T10:31:27.467Z,52.05
2023-03-02T10:33:55.111Z,55.42
2023-03-02T10:36:37.569Z,54.75
2023-03-02T10:39:14.428Z,50.90
2023-03-02T10:41:57.711Z,53.65
2023-03-02T10:44:32.468Z,54.58
2023-03-02T10:46:59.644Z,54.25
2023-03-02T10:49:32.485Z,52.47
2023-03-02T10:52:19.441Z,53.67
2023-03-02T10:54:47.690Z,51.83
2023-03-02T10:57:31.322Z,54.13
2023-03-02T11:00:05.964Z,51.63
2023-03-02T11:02:37.532Z,53.22
2023-03-02T11:05:28.692Z,53.03
2023-03-02T11:07:59.728Z,51.67
2023-03-02T11:10:39.728Z,51.80
2023-03-02T11:13:39.517Z,53.47
2023-03-02T11:16:18.714Z,54.58
2023-03-02T11:18:49.909Z,49.35
2023-03-02T11:21:26.351Z,49.83
2023-03-02T11:24:38.043Z,52.95
2023-03-02T11:27:22.715Z,48.17
2023-03-02T11:30:19.217Z,51.03
2023-03-02T11:33:02.043Z,51.45
2023-03-02T11:35:34.149Z,51.85
2023-03-02T11:38:27.520Z,49.40
2023-03-02T11:41:05.793Z,52.30
2023-03-02T11:43:33.105Z,51.42
2023-03-02T11:46:13.946Z,50.42
2023-03-02T11:48:49.872Z,50.55
2023-03-02T11:51:27.576Z,56.08
2023-03-02T11:54:12.053Z,45.88
2023-03-02T11:56:40.370Z,46.00
2023-03-02T11:59:17.643Z,46.65
2023-03-02T12:01:50.402Z,44.60
2023-03-02T12:04:36.377Z,45.87
2023-03-02T12:07:18.690Z,41.45
2023-03-02T12:10:03.994Z,42.13
2023-03-02T12:12:44.555Z,45.90
2023-03-02T12:15:56.481Z,46.13
2023-03-02T12:18:23.490Z,44.60
2023-03-02T12:21:05.598Z,52.00
2023-03-02T12:23:53.590Z,49.78
2023-03-02T12:26:20.540Z,44.83
2023-03-02T12:29:00.115Z,43.42
2023-03-02T12:31:40.180Z,48.55
2023-03-02T12:34:22.350Z,46.00
2023-03-02T12:36:51.959Z,49.25
2023-03-02T12:39:57.143Z,48.00
2023-03-02T12:42:55.119Z,42.97
2023-03-02T12:45:53.912Z,47.58
2023-03-02T12:48:36.096Z,46.55
2023-03-02T12:51:05.975Z,45.58
2023-03-02T12:53:33.192Z,47.78
2023-03-02T12:56:00.682Z,48.88
2023-03-02T12:58:30.181Z,48.95
2023-03-02T13:01:01.228Z,49.10
2023-03-02T13:03:31.231Z,51.10
2023-03-02T13:06:14.497Z,50.33
2023-03-02T13:08:46.388Z,51.35
2023-03-02T13:11:24.980Z,49.55
2023-03-02T13:13:52.566Z,49.90
2023-03-02T13:16:27.355Z,56.10
2023-03-02T13:19:19.701Z,46.88
2023-03-02T13:21:46.882Z,44.03
2023-03-02T13:25:00.540Z,39.83
2023-03-02T13:27:29.075Z,37.80
2023-03-02T13:29:56.956Z,41.30
2023-03-02T13:32:41.922Z,39.65
2023-03-02T13:35:38.064Z,37.00
2023-03-02T13:38:15.798Z,39.78
2023-03-02T13:40:48.348Z,37.55
2023-03-02T13:43:30.626Z,39.33
2023-03-02T13:46:29.408Z,40.22
2023-03-02T13:49:10.571Z,37.85
2023-03-02T13:51:46.620Z,44.35
2023-03-02T13:54:26.523Z,38.35
2023-03-02T13:56:54.001Z,38.95
2023-03-02T13:59:22.414Z,35.72
2023-03-02T14:01:50.588Z,35.97
2023-03-02T14:04:24.211Z,37.00
2023-03-02T14:06:54.038Z,39.13
2023-03-02T14:09:21.664Z,35.60
2023-03-02T14:11:53.681Z,37.35
2023-03-02T14:14:24.964Z,37.88
2023-03-02T14:16:52.537Z,40.50
2023-03-02T14:19:20.263Z,39.83
2023-03-02T14:21:48.190Z,37.97
2023-03-02T14:24:15.795Z,35.67
2023-03-02T14:26:47.303Z,39.05
2023-03-02T14:29:27.636Z,37.65
2023-03-02T14:32:02.111Z,36.95
2023-03-02T14:34:29.418Z,37.10
2023-03-02T14:37:00.081Z,39.80
2023-03-02T14:39:38.062Z,32.63
2023-03-02T14:42:17.227Z,37.42
2023-03-02T14:44:46.880Z,36.33
2023-03-02T14:47:16.657Z,36.20
2023-03-02T14:49:44.177Z,35.15
2023-03-02T14:52:30.964Z,35.42
2023-03-02T14:55:07.192Z,36.53
2023-03-02T14:57:40.490Z,37.33
2023-03-02T15:00:14.110Z,34.83
2023-03-02T15:02:41.614Z,35.05
2023-03-02T15:05:09.651Z,35.92
2023-03-02T15:07:38.953Z,35.10
2023-03-02T15:10:07.410Z,35.92
2023-03-02T15:12:34.829Z,27.85
2023-03-02T15:15:02.140Z,31.27
2023-03-02T15:17:29.335Z,32.30
2023-03-02T15:19:56.556Z,31.23
2023-03-02T15:22:23.662Z,32.35
2023-03-02T15:24:50.855Z,33.03
2023-03-02T15:27:18.407Z,29.45
2023-03-02T15:29:47.132Z,31.13
2023-03-02T15:32:14.960Z,31.85
2023-03-02T15:34:42.680Z,34.38
2023-03-02T15:37:11.632Z,30.13
2023-03-02T15:39:39.198Z,31.60
2023-03-02T15:42:07.192Z,32.65
2023-03-02T15:44:34.295Z,35.00
2023-03-02T15:47:01.445Z,36.22
2023-03-02T15:49:29.469Z,30.75
2023-03-02T15:51:57.911Z,30.85
2023-03-02T15:54:26.753Z,32.70
2023-03-02T15:56:54.119Z,32.33
2023-03-02T15:59:25.502Z,31.90
2023-03-02T16:01:53.764Z,36.05
2023-03-02T16:04:20.888Z,34.15
2023-03-02T16:06:48.043Z,33.05
2023-03-02T16:09:15.419Z,30.85
2023-03-02T16:11:42.897Z,32.65
2023-03-02T16:14:10.162Z,31.02
2023-03-02T16:16:37.231Z,33.13
2023-03-02T16:19:04.293Z,32.03
2023-03-02T16:21:31.294Z,34.90
2023-03-02T16:24:04.572Z,32.30
2023-03-02T16:26:35.124Z,29.60
2023-03-02T16:29:04.381Z,31.13
2023-03-02T16:31:33.898Z,30.25
2023-03-02T16:34:07.022Z,33.25
2023-03-02T16:36:36.740Z,29.77
2023-03-02T16:39:04.668Z,29.73
2023-03-02T16:41:31.724Z,30.65
2023-03-02T16:44:00.134Z,28.40
2023-03-02T16:46:31.921Z,28.27
2023-03-02T16:48:59.697Z,30.17
2023-03-02T16:51:26.879Z,29.63
2023-03-02T16:53:55.926Z,29.75
2023-03-02T16:56:23.611Z,27.17
2023-03-02T16:58:50.651Z,29.90
2023-03-02T17:01:21.121Z,32.03
2023-03-02T17:03:51.989Z,33.10
2023-03-02T17:06:22.377Z,32.50
2023-03-02T17:08:50.845Z,38.28
2023-03-02T17:11:19.431Z,32.42
2023-03-02T17:13:47.145Z,35.38
2023-03-02T17:16:16.143Z,36.15
2023-03-02T17:18:47.107Z,34.85
2023-03-02T17:21:16.829Z,39.25
2023-03-02T17:23:44.577Z,44.38
2023-03-02T17:26:11.666Z,42.97
2023-03-02T17:28:39.488Z,33.78
2023-03-02T17:31:06.874Z,41.13
2023-03-02T17:33:34.723Z,44.90
2023-03-02T17:36:08.916Z,51.38
2023-03-02T17:41:07.433Z,50.25
2023-03-02T17:43:37.610Z,54.15
2023-03-02T17:46:20.508Z,43.85
2023-03-02T17:48:53.732Z,42.58
2023-03-02T17:51:22.239Z,44.13
2023-03-02T17:53:52.090Z,37.28
2023-03-02T17:56:23.545Z,37.58
2023-03-02T17:59:00.309Z,37.13
2023-03-02T18:01:28.841Z,39.80
2023-03-02T18:03:56.130Z,41.00
2023-03-02T18:06:23.887Z,35.47
2023-03-02T18:08:52.195Z,35.45
2023-03-02T18:11:22.402Z,38.53
2023-03-02T18:13:50.167Z,32.70
2023-03-02T18:16:17.227Z,38.67
2023-03-02T18:18:44.353Z,38.28
2023-03-02T18:21:11.409Z,44.17
2023-03-02T18:23:39.857Z,34.67
2023-03-02T18:26:07.114Z,44.90
2023-03-02T18:28:34.734Z,37.90
2023-03-02T18:31:02.039Z,42.60
2023-03-02T18:33:29.170Z,46.25
2023-03-02T18:35:57.317Z,40.70
2023-03-02T18:38:31.018Z,37.58
2023-03-02T18:41:00.810Z,41.83
2023-03-02T18:43:29.031Z,45.13
2023-03-02T18:45:57.878Z,39.53
2023-03-02T18:48:25.290Z,50.60
2023-03-02T18:50:52.624Z,45.42
2023-03-02T18:53:19.968Z,49.92
2023-03-02T18:55:47.239Z,48.22
2023-03-02T18:58:23.513Z,46.10
2023-03-02T19:00:53.074Z,48.40
2023-03-02T19:03:20.703Z,50.63
2023-03-02T19:05:48.147Z,45.08
2023-03-02T19:08:15.137Z,45.17
2023-03-02T19:10:42.543Z,49.08
2023-03-02T19:13:11.743Z,49.72
2023-03-02T19:15:40.604Z,48.70
2023-03-02T19:18:09.019Z,48.78
2023-03-02T19:20:37.723Z,49.10
2023-03-02T19:23:05.181Z,49.20
2023-03-02T19:25:32.218Z,50.50
2023-03-02T19:27:59.251Z,44.83
2023-03-02T19:30:27.710Z,45.05
2023-03-02T19:32:55.204Z,47.08
2023-03-02T19:35:25.679Z,49.58
2023-03-02T19:37:52.989Z,50.50
2023-03-02T19:40:24.808Z,48.50
2023-03-02T19:42:53.374Z,44.20
2023-03-02T19:45:25.074Z,49.17
2023-03-02T19:47:52.260Z,55.90
2023-03-02T19:50:21.065Z,53.42
2023-03-02T19:52:48.258Z,54.40
2023-03-02T19:55:16.650Z,53.05
2023-03-02T19:57:44.054Z,48.75
2023-03-02T20:00:16.316Z,48.05
2023-03-02T20:02:45.109Z,50.97
2023-03-02T20:05:12.274Z,48.47
2023-03-02T20:07:41.642Z,47.28
2023-03-02T20:10:13.229Z,51.90
2023-03-02T20:12:40.407Z,53.65
2023-03-02T20:15:08.083Z,48.90
2023-03-02T20:17:35.171Z,51.60
2023-03-02T20:20:03.664Z,55.55
2023-03-02T20:22:30.839Z,52.70
2023-03-02T20:24:57.942Z,44.40
2023-03-02T20:27:25.185Z,53.92
2023-03-02T20:29:52.348Z,57.25
2023-03-02T20:32:19.716Z,51.15
2023-03-02T20:34:46.919Z,55.30
2023-03-02T20:37:15.691Z,52.38
2023-03-02T20:39:45.408Z,54.58
2023-03-02T20:42:13.030Z,51.22
2023-03-02T20:44:40.837Z,56.28
2023-03-02T20:47:13.389Z,57.05
2023-03-02T20:49:41.299Z,54.75
2023-03-02T20:52:10.450Z,56.47
2023-03-02T20:54:42.369Z,105.55
2023-03-02T20:57:15.793Z,80.10
2023-03-02T20:59:45.928Z,72.27
2023-03-02T21:02:15.719Z,76.22
2023-03-02T21:04:43.661Z,71.03
2023-03-02T21:07:11.461Z,72.68
2023-03-02T21:09:39.500Z,63.33
2023-03-02T21:12:08.911Z,61.88
2023-03-02T21:14:39.292Z,58.05
2023-03-02T21:17:07.827Z,50.65
2023-03-02T21:19:35.863Z,54.40
2023-03-02T21:22:03.868Z,50.75
2023-03-02T21:24:30.845Z,55.83
2023-03-02T21:26:58.200Z,53.95
2023-03-02T21:29:26.780Z,52.03
2023-03-02T21:31:54.478Z,54.30
2023-03-02T21:34:22.400Z,48.80
2023-03-02T21:36:53.104Z,48.95
2023-03-02T21:39:23.723Z,45.00
2023-03-02T21:41:52.114Z,47.67
2023-03-02T21:44:19.943Z,47.25
2023-03-02T21:46:47.930Z,48.63
2023-03-02T21:49:21.506Z,44.35
2023-03-02T21:51:49.871Z,46.47
2023-03-02T21:54:18.733Z,49.13
2023-03-02T21:56:45.816Z,47.33
2023-03-02T21:59:12.985Z,48.30
2023-03-02T22:01:40.808Z,54.55
2023-03-02T22:04:08.250Z,51.28
2023-03-02T22:06:35.866Z,45.80
2023-03-02T22:09:03.599Z,48.42
2023-03-02T22:11:38.236Z,47.92
2023-03-02T22:14:15.124Z,45.15
2023-03-02T22:16:47.388Z,47.70
2023-03-02T22:19:28.969Z,49.55
2023-03-02T22:22:00.247Z,45.70
2023-03-02T22:24:32.694Z,42.35
2023-03-02T22:27:24.934Z,52.00
2023-03-02T22:29:55.277Z,49.88
2023-03-02T22:32:36.940Z,49.17
2023-03-02T22:35:27.515Z,48.22
2023-03-02T22:38:02.737Z,49.58
2023-03-02T22:40:32.772Z,50.60
2023-03-02T22:43:30.984Z,45.20
2023-03-02T22:46:18.767Z,39.70
2023-03-02T22:48:52.195Z,44.03
2023-03-02T22:51:24.781Z,53.15
2023-03-02T22:53:55.931Z,42.75
2023-03-02T22:56:37.210Z,53.13
2023-03-02T22:59:16.594Z,57.13
2023-03-02T23:01:45.915Z,50.28
2023-03-02T23:04:46.810Z,57.45
2023-03-02T23:07:21.647Z,49.83
2023-03-02T23:09:49.176Z,50.72
2023-03-02T23:12:23.855Z,49.17
2023-03-02T23:14:52.378Z,50.38
2023-03-02T23:17:34.567Z,52.50
2023-03-02T23:20:03.309Z,48.58
2023-03-02T23:22:32.115Z,51.92
2023-03-02T23:24:59.378Z,45.90
2023-03-02T23:27:26.466Z,44.20
2023-03-02T23:29:54.322Z,45.53
2023-03-02T23:32:21.525Z,45.15
2023-03-02T23:34:48.812Z,44.78
2023-03-02T23:37:16.146Z,48.17
2023-03-02T23:39:45.713Z,52.97
2023-03-02T23:42:13.768Z,45.85
2023-03-02T23:44:40.809Z,45.63
2023-03-02T23:47:08.030Z,47.65
2023-03-02T23:49:35.047Z,43.50
2023-03-02T23:52:02.980Z,48.58
2023-03-02T23:54:30.036Z,44.97
2023-03-02T23:56:57.016Z,50.78
2023-03-02T23:59:24.150Z,48.38
